Time;durP1;ratioP1;P1;durP2;ratioP2;P2;SDS_P1;SDS_P2;PMS_P1;PMS_P2;Temp;Humidity;BMP_temperature;BMP_pressure;BME280_temperature;BME280_humidity;BME280_pressure;Samples;Min_cycle;Max_cycle;Signal;HPM_P1;HPM_P2
2021/11/09 00:01:28;;;;;;;13.10;9.80;;;;;;;;;;5070011;28;20242;-85
2021/11/09 00:04:01;;;;;;;15.65;10.00;;;;;;;;;;5060405;28;20314;-85
2021/11/09 00:06:31;;;;;;;11.70;7.75;;;;;;;;;;5050139;28;20212;-85
2021/11/09 00:09:05;;;;;;;20.17;9.43;;;;;;;;;;5050283;28;20254;-85
2021/11/09 00:11:34;;;;;;;13.88;9.68;;;2.50;99.90;;;;;;5049316;28;20216;-85
2021/11/09 00:14:02;;;;;;;16.98;11.48;;;;;;;;;;5059853;28;20230;-84
2021/11/09 00:16:30;;;;;;;23.92;9.13;;;;;;;;;;5070306;28;20205;-85
2021/11/09 00:18:58;;;;;;;12.90;9.63;;;;;;;;;;5070077;28;20213;-84
2021/11/09 00:21:25;;;;;;;14.05;9.18;;;2.40;99.90;;;;;;5069563;28;20228;-85
2021/11/09 00:23:53;;;;;;;14.40;9.65;;;;;;;;;;5061043;28;20205;-84
2021/11/09 00:26:20;;;;;;;12.25;10.85;;;;;;;;;;5050326;28;20267;-85
2021/11/09 00:28:49;;;;;;;14.30;8.70;;;2.20;99.90;;;;;;5050086;28;20662;-85
2021/11/09 00:31:16;;;;;;;13.45;10.18;;;;;;;;;;5049188;28;20201;-85
2021/11/09 00:33:43;;;;;;;16.63;8.77;;;;;;;;;;5058955;28;20288;-84
2021/11/09 00:36:11;;;;;;;16.02;9.63;;;;;;;;;;5049607;28;20288;-85
2021/11/09 00:38:38;;;;;;;14.32;9.73;;;;;;;;;;5049805;28;20736;-84
2021/11/09 00:41:05;;;;;;;16.27;9.40;;;;;;;;;;5057116;28;20254;-84
2021/11/09 00:43:33;;;;;;;12.10;10.43;;;;;;;;;;5064391;28;20266;-85
2021/11/09 00:46:01;;;;;;;15.60;10.63;;;;;;;;;;5050209;28;20205;-85
2021/11/09 00:48:28;;;;;;;14.25;9.40;;;;;;;;;;5049924;28;20250;-85
2021/11/09 00:50:56;;;;;;;14.13;9.13;;;2.20;99.90;;;;;;5050391;28;20244;-84
2021/11/09 00:53:24;;;;;;;11.13;8.98;;;;;;;;;;5057912;28;20278;-85
2021/11/09 00:55:52;;;;;;;9.75;7.45;;;;;;;;;;5074185;28;20345;-85
2021/11/09 00:58:19;;;;;;;11.18;8.75;;;;;;;;;;5073578;28;20296;-85
2021/11/09 01:00:46;;;;;;;13.52;9.68;;;;;;;;;;5073074;28;20291;-85
2021/11/09 01:03:15;;;;;;;12.77;10.55;;;2.10;99.90;;;;;;5070794;28;20625;-85
2021/11/09 01:05:43;;;;;;;15.40;8.57;;;2.20;99.90;;;;;;5052953;28;20281;-85
2021/11/09 01:08:14;;;;;;;12.20;8.60;;;2.10;99.90;;;;;;5053575;28;20227;-85
2021/11/09 01:10:43;;;;;;;13.82;8.75;;;2.20;99.90;;;;;;5052933;28;20220;-85
2021/11/09 01:13:11;;;;;;;11.88;9.02;;;2.20;99.90;;;;;;5055150;28;20258;-85
2021/11/09 01:15:47;;;;;;;13.13;9.10;;;2.20;99.90;;;;;;5072596;28;20208;-85
2021/11/09 01:18:16;;;;;;;13.52;8.60;;;;;;;;;;5072970;28;20222;-85
2021/11/09 01:20:43;;;;;;;14.80;9.10;;;;;;;;;;5072844;28;20205;-85
2021/11/09 01:23:11;;;;;;;13.00;9.60;;;;;;;;;;5071365;28;20200;-85
2021/11/09 01:25:38;;;;;;;14.10;9.57;;;;;;;;;;5053597;28;20238;-85
2021/11/09 01:28:06;;;;;;;13.32;9.77;;;2.30;99.90;;;;;;5053156;28;20540;-85
2021/11/09 01:30:34;;;;;;;12.02;9.13;;;;;;;;;;5051875;28;20279;-85
2021/11/09 01:33:02;;;;;;;13.27;9.60;;;;;;;;;;5063238;28;20216;-86
2021/11/09 01:35:30;;;;;;;14.18;9.75;;;;;;;;;;5052844;28;20209;-85
2021/11/09 01:37:58;;;;;;;13.88;9.80;;;;;;;;;;5052858;28;20746;-85
2021/11/09 01:40:26;;;;;;;13.73;10.18;;;2.30;99.90;;;;;;5054623;28;20291;-85
2021/11/09 01:42:53;;;;;;;11.88;9.05;;;;;;;;;;5073038;28;20556;-86
2021/11/09 01:45:20;;;;;;;15.38;9.82;;;;;;;;;;5053778;28;20321;-85
2021/11/09 01:47:47;;;;;;;13.20;10.20;;;;;;;;;;5053010;28;20228;-85
2021/11/09 01:50:17;;;;;;;10.98;8.00;;;2.30;99.90;;;;;;5052355;28;20288;-85
2021/11/09 01:52:45;;;;;;;13.38;9.70;;;;;;;;;;5052402;28;20726;-86
2021/11/09 01:55:15;;;;;;;12.55;9.43;;;2.20;99.90;;;;;;5070118;28;20224;-84
2021/11/09 01:57:42;;;;;;;15.77;9.70;;;;;;;;;;5072058;28;20545;-85
2021/11/09 02:00:15;;;;;;;18.92;9.85;;;2.30;99.90;;;;;;5072101;28;20265;-84
2021/11/09 02:02:42;;;;;;;16.77;9.48;;;;;;;;;;5070664;28;20212;-85
2021/11/09 02:05:10;;;;;;;14.02;9.23;;;1.70;99.90;;;;;;5055063;28;20224;-85
2021/11/09 02:07:43;;;;;;;16.48;10.35;;;;;;;;;;5052278;28;20204;-85
2021/11/09 02:10:12;;;;;;;13.60;9.48;;;;;;;;;;5051400;28;20687;-85
2021/11/09 02:12:39;;;;;;;12.48;9.82;;;;;;;;;;5052327;28;20204;-86
2021/11/09 02:15:07;;;;;;;18.08;10.93;;;;;;;;;;5067315;28;20227;-85
2021/11/09 02:17:36;;;;;;;12.40;9.82;;;2.30;99.90;;;;;;5072265;28;20204;-85
2021/11/09 02:20:04;;;;;;;13.70;9.82;;;2.40;99.90;;;;;;5071967;28;20633;-86
2021/11/09 02:22:34;;;;;;;13.15;9.63;;;;;;;;;;5071665;28;20270;-86
2021/11/09 02:25:01;;;;;;;14.13;10.25;;;;;;;;;;5056854;28;20228;-86
2021/11/09 02:27:28;;;;;;;12.27;9.95;;;;;;;;;;5052214;28;20274;-85
2021/11/09 02:29:56;;;;;;;14.70;10.10;;;;;;;;;;5052065;28;20201;-86
2021/11/09 02:32:23;;;;;;;14.68;9.65;;;;;;;;;;5056227;28;20193;-87
2021/11/09 02:34:50;;;;;;;21.27;11.95;;;;;;;;;;5058064;28;20634;-86
2021/11/09 02:37:17;;;;;;;17.13;10.93;;;;;;;;;;5051054;28;20237;-86
2021/11/09 02:39:46;;;;;;;18.75;11.27;;;;;;;;;;5052051;28;20240;-87
2021/11/09 02:42:16;;;;;;;25.67;15.52;;;2.80;99.90;;;;;;5068295;28;20197;-87
2021/11/09 02:44:50;;;;;;;20.05;13.68;;;;;;;;;;5059190;28;20237;-87
2021/11/09 02:47:18;;;;;;;19.23;14.88;;;;;;;;;;5052573;28;20194;-87
2021/11/09 02:49:54;;;;;;;21.83;14.20;;;;;;;;;;5051084;28;20210;-87
2021/11/09 02:52:22;;;;;;;27.75;15.88;;;;;;;;;;5051097;28;20207;-87
2021/11/09 02:54:57;;;;;;;20.55;13.82;;;;;;;;;;5064684;28;20253;-87
2021/11/09 02:57:29;;;;;;;23.42;13.82;;;;;;;;;;5071504;28;20216;-88
2021/11/09 03:00:01;;;;;;;22.10;14.20;;;;;;;;;;5071257;28;20400;-87
2021/11/09 03:02:37;;;;;;;22.08;13.48;;;;;;;;;;5070603;28;20266;-87
2021/11/09 03:05:11;;;;;;;21.25;12.65;;;;;;;;;;5056107;28;20953;-87
2021/11/09 03:07:42;;;;;;;19.23;12.65;;;;;;;;;;5051113;28;20248;-87
2021/11/09 03:10:21;;;;;;;16.58;13.68;;;2.70;99.90;;;;;;5050853;28;20210;-86
2021/11/09 03:12:49;;;;;;;19.05;12.82;;;;;;;;;;5050722;28;20228;-87
2021/11/09 03:15:20;;;;;;;21.95;14.00;;;2.90;99.90;;;;;;5066545;28;20210;-87
2021/11/09 03:17:51;;;;;;;17.60;12.85;;;;;;;;;;5071143;28;20597;-88
2021/11/09 03:20:26;;;;;;;17.23;12.40;;;2.80;99.90;;;;;;5070523;28;20576;-87
2021/11/09 03:45:05;;;;;;;13.40;10.05;;;;;;;;;;5057203;28;20232;-87
2021/11/09 03:47:37;;;;;;;12.75;10.48;;;;;;;;;;5050468;28;20244;-87
2021/11/09 03:50:04;;;;;;;19.52;10.35;;;;;;;;;;5050394;28;20240;-86
2021/11/09 03:52:39;;;;;;;14.57;9.45;;;;;;;;;;5050440;28;20763;-87
2021/11/09 03:55:07;;;;;;;12.65;10.85;;;2.10;99.90;;;;;;5064100;28;20295;-87
2021/11/09 03:57:39;;;;;;;14.05;9.60;;;;;;;;;;5070717;28;20212;-87
2021/11/09 04:00:14;;;;;;;13.73;10.30;;;2.30;99.90;;;;;;5070229;28;20579;-85
2021/11/09 04:02:51;;;;;;;13.00;10.73;;;;;;;;;;5070021;28;20221;-87
2021/11/09 04:05:21;;;;;;;14.35;10.00;;;;;;;;;;5054936;28;20229;-88
2021/11/09 04:07:56;;;;;;;14.80;9.65;;;;;;;;;;5050322;28;20211;-87
2021/11/09 04:10:32;;;;;;;14.05;9.63;;;;;;;;;;5049699;28;20211;-86
2021/11/09 04:13:08;;;;;;;13.52;9.15;;;;;;;;;;5050064;28;20200;-85
2021/11/09 04:18:30;;;;;;;15.60;10.10;;;;;;;;;;5070613;28;20215;-85
2021/11/09 04:21:06;;;;;;;12.98;9.70;;;;;;;;;;5069694;28;20199;-85
2021/11/09 04:29:35;;;;;;;12.90;10.68;;;;;;;;;;5053345;28;20212;-85
2021/11/09 04:32:29;;;;;;;11.38;8.85;;;;;;;;;;5055565;28;20204;-85
2021/11/09 04:35:23;;;;;;;9.68;8.30;;;;;;;;;;5062210;28;20204;-85
2021/11/09 05:03:00;;;;;;;10.05;9.05;;;;;;;;;;5053259;28;20283;-85
2021/11/09 05:08:28;;;;;;;12.68;8.95;;;;;;;;;;5073325;28;20195;-83
2021/11/09 05:10:57;;;;;;;12.32;8.80;;;;;;;;;;5072717;28;20657;-83
2021/11/09 05:13:25;;;;;;;14.82;7.72;;;;;;;;;;5073030;28;20207;-83
2021/11/09 05:15:53;;;;;;;11.32;9.57;;;1.20;99.90;;;;;;5053575;28;20201;-84
2021/11/09 05:18:22;;;;;;;17.90;9.57;;;1.20;99.90;;;;;;5053517;28;20239;-84
2021/11/09 05:20:49;;;;;;;11.18;9.60;;;;;;;;;;5052904;28;20259;-84
2021/11/09 05:23:17;;;;;;;9.70;8.13;;;;;;;;;;5053428;28;20261;-84
2021/11/09 05:25:44;;;;;;;13.00;8.20;;;;;;;;;;5069966;28;20281;-84
2021/11/09 05:28:12;;;;;;;12.43;8.68;;;;;;;;;;5072812;28;20295;-84
2021/11/09 05:30:42;;;;;;;9.57;8.52;;;1.20;99.90;;;;;;5072737;28;20657;-84
2021/11/09 05:33:13;;;;;;;12.55;8.82;;;;;;;;;;5073172;28;20196;-83
2021/11/09 05:35:42;;;;;;;11.88;7.90;;;;;;;;;;5056779;28;20203;-83
2021/11/09 05:38:11;;;;;;;14.75;8.50;;;;;;;;;;5052483;28;20233;-82
2021/11/09 05:40:40;;;;;;;15.85;8.60;;;;;;;;;;5055716;28;20513;-83
2021/11/09 05:43:08;;;;;;;11.95;8.02;;;1.00;99.90;;;;;;5073144;28;20282;-82
2021/11/09 05:45:36;;;;;;;13.85;8.40;;;;;;;;;;5057476;28;20630;-83
2021/11/09 05:48:03;;;;;;;13.70;9.95;;;;;;;;;;5052855;28;20236;-82
2021/11/09 05:50:31;;;;;;;15.18;8.13;;;;;;;;;;5052153;28;20279;-85
2021/11/09 05:52:59;;;;;;;12.82;8.55;;;;;;;;;;5052224;28;20208;-83
2021/11/09 05:55:28;;;;;;;13.52;9.40;;;;;;;;;;5066383;28;20287;-84
2021/11/09 05:57:55;;;;;;;11.88;8.32;;;;;;;;;;5072979;28;20458;-83
2021/11/09 06:00:22;;;;;;;10.40;8.80;;;;;;;;;;5072056;28;20296;-84
2021/11/09 06:02:50;;;;;;;9.35;8.35;;;;;;;;;;5072576;28;20292;-82
2021/11/09 06:05:17;;;;;;;14.60;7.65;;;;;;;;;;5059833;28;20868;-82
2021/11/09 06:07:44;;;;;;;9.80;8.73;;;;;;;;;;5052378;28;20266;-85
2021/11/09 06:10:13;;;;;;;13.27;8.50;;;;;;;;;;5051748;28;20606;-84
2021/11/09 06:12:40;;;;;;;10.23;9.10;;;;;;;;;;5052225;28;20200;-85
2021/11/09 06:15:08;;;;;;;19.30;9.25;;;;;;;;;;5061576;28;20234;-84
2021/11/09 06:17:35;;;;;;;11.88;8.55;;;;;;;;;;5072385;28;20227;-85
2021/11/09 06:20:02;;;;;;;8.68;7.78;;;;;;;;;;5071609;28;20199;-84
2021/11/09 06:22:29;;;;;;;13.52;7.97;;;;;;;;;;5071583;28;20203;-84
2021/11/09 06:24:56;;;;;;;12.55;8.70;;;;;;;;;;5062428;28;20281;-84
2021/11/09 06:27:25;;;;;;;16.15;8.40;;;;;;;;;;5052144;28;20264;-85
2021/11/09 06:29:53;;;;;;;14.10;8.80;;;0.80;99.90;;;;;;5052103;28;20227;-84
2021/11/09 06:32:20;;;;;;;11.48;8.13;;;;;;;;;;5056449;28;20215;-85
2021/11/09 06:34:47;;;;;;;15.90;8.98;;;;;;;;;;5071384;28;20249;-85
2021/11/09 06:37:14;;;;;;;10.75;8.50;;;;;;;;;;5071499;28;20307;-85
2021/11/09 06:39:41;;;;;;;17.75;9.93;;;;;;;;;;5071816;28;20246;-85
2021/11/09 06:42:09;;;;;;;12.05;9.23;;;;;;;;;;5070384;28;20282;-85
2021/11/09 06:44:38;;;;;;;11.23;8.45;;;;;;;;;;5071758;28;20207;-85
2021/11/09 06:47:05;;;;;;;9.82;8.48;;;;;;;;;;5071764;28;20269;-85
2021/11/09 06:49:32;;;;;;;11.70;8.43;;;;;;;;;;5070933;28;20225;-84
2021/11/09 06:51:59;;;;;;;17.10;8.48;;;;;;;;;;5057883;28;20254;-85
2021/11/09 06:54:26;;;;;;;12.90;8.82;;;;;;;;;;5074597;28;20198;-85
2021/11/09 06:56:54;;;;;;;12.68;8.40;;;;;;;;;;5081739;28;20205;-85
2021/11/09 06:59:21;;;;;;;11.73;8.82;;;;;;;;;;5085491;28;20306;-85
2021/11/09 07:01:50;;;;;;;12.70;7.70;;;0.60;99.90;;;;;;5063860;28;20203;-85
2021/11/09 07:04:17;;;;;;;10.48;8.00;;;;;;;;;;5086941;28;20279;-85
2021/11/09 07:06:45;;;;;;;16.45;9.25;;;;;;;;;;5080308;28;20276;-85
2021/11/09 07:09:13;;;;;;;12.10;9.52;;;;;;;;;;5078968;28;20199;-85
2021/11/09 07:11:40;;;;;;;8.38;7.07;;;;;;;;;;5061353;28;20200;-85
2021/11/09 07:14:08;;;;;;;10.60;8.00;;;;;;;;;;5051051;28;20203;-85
2021/11/09 07:16:36;;;;;;;11.32;9.10;;;;;;;;;;5051319;28;20208;-85
2021/11/09 07:19:05;;;;;;;10.10;7.03;;;;;;;;;;5051477;28;20577;-86
2021/11/09 07:21:32;;;;;;;16.15;8.65;;;1.10;99.90;;;;;;5059140;28;20282;-88
2021/11/09 07:24:00;;;;;;;13.20;8.15;;;;;;;;;;5071076;28;20200;-88
2021/11/09 07:26:27;;;;;;;13.88;8.35;;;;;;;;;;5071293;28;20972;-88
2021/11/09 07:28:55;;;;;;;16.33;8.50;;;;;;;;;;5070624;28;20199;-88
2021/11/09 07:31:22;;;;;;;12.55;7.70;;;;;;;;;;5064037;28;20247;-87
2021/11/09 07:33:51;;;;;;;10.27;6.82;;;;;;;;;;5068466;28;20196;-88
2021/11/09 07:36:20;;;;;;;10.20;7.90;;;;;;;;;;5070830;28;20200;-88
2021/11/09 07:38:47;;;;;;;9.05;8.15;;;;;;;;;;5071338;28;20208;-87
2021/11/09 07:41:15;;;;;;;15.13;8.02;;;;;;;;;;5070616;28;20260;-89
2021/11/09 07:43:42;;;;;;;9.70;7.90;;;;;;;;;;5070406;28;20203;-89
2021/11/09 07:46:13;;;;;;;8.07;7.25;;;2.00;99.90;;;;;;5072085;28;20589;-88
2021/11/09 07:48:40;;;;;;;8.30;6.60;;;;;;;;;;5073293;28;20208;-89
2021/11/09 07:51:07;;;;;;;10.95;7.20;;;;;;;;;;5084121;28;20196;-89
2021/11/09 07:53:38;;;;;;;8.63;6.93;;;;;;;;;;5077091;28;20200;-89
2021/11/09 07:56:13;;;;;;;10.20;7.65;;;;;;;;;;5075556;28;20212;-88
2021/11/09 07:58:47;;;;;;;11.63;8.45;;;;;;;;;;5087338;28;20205;-89
2021/11/09 08:01:17;;;;;;;12.48;6.28;;;2.70;99.90;;;;;;5080423;28;20215;-88
2021/11/09 08:03:47;;;;;;;20.85;7.57;;;;;;;;;;5083886;28;20228;-88
2021/11/09 08:06:20;;;;;;;8.13;4.72;;;;;;;;;;5074074;28;20217;-88
2021/11/09 08:08:59;;;;;;;7.68;5.55;;;;;;;;;;5058086;28;20637;-87
2021/11/09 08:11:26;;;;;;;9.25;6.32;;;;;;;;;;5081101;28;20696;-87
2021/11/09 08:13:54;;;;;;;7.82;6.00;;;;;;;;;;5080454;28;20205;-87
2021/11/09 08:16:21;;;;;;;7.78;5.22;;;;;;;;;;5073508;28;20196;-86
2021/11/09 08:18:49;;;;;;;6.00;4.38;;;3.60;99.90;;;;;;5083775;28;20338;-86
2021/11/09 08:21:28;;;;;;;7.10;4.78;;;;;;;;;;5080795;28;20228;-87
2021/11/09 08:24:11;;;;;;;8.27;4.95;;;;;;;;;;5078210;28;20198;-86
2021/11/09 08:26:40;;;;;;;7.55;4.95;;;;;;;;;;5088119;28;20264;-85
2021/11/09 08:29:07;;;;;;;8.75;4.03;;;;;;;;;;5090348;28;20647;-86
2021/11/09 08:31:36;;;;;;;13.60;6.63;;;4.00;99.90;;;;;;5090128;28;20274;-86
2021/11/09 08:34:05;;;;;;;8.77;7.13;;;4.10;99.90;;;;;;5070370;28;20266;-85
2021/11/09 08:36:33;;;;;;;10.27;8.27;;;4.10;99.90;;;;;;5069779;28;20212;-86
2021/11/09 08:39:01;;;;;;;10.90;8.20;;;4.00;99.90;;;;;;5070211;28;20206;-86
2021/11/09 08:41:37;;;;;;;13.50;8.15;;;;;;;;;;5069404;28;20211;-86
2021/11/09 08:44:08;;;;;;;5.05;3.60;;;4.30;99.90;;;;;;5053413;28;20202;-86
2021/11/09 08:46:40;;;;;;;7.90;3.65;;;4.70;99.90;;;;;;5050275;28;20593;-86
2021/11/09 08:49:08;;;;;;;5.25;3.05;;;;;;;;;;5050237;28;20211;-86
2021/11/09 08:51:36;;;;;;;7.15;3.05;;;;;;;;;;5049356;28;20562;-86
2021/11/09 08:54:12;;;;;;;6.60;4.22;;;;;;;;;;5066170;28;20201;-85
2021/11/09 08:56:55;;;;;;;6.45;3.95;;;5.30;99.90;;;;;;5069783;28;20213;-86
2021/11/09 09:04:56;;;;;;;3.55;3.25;;;5.70;99.70;;;;;;5049380;28;20204;-85
2021/11/09 09:07:23;;;;;;;6.35;3.42;;;;;;;;;;5049373;28;20321;-86
2021/11/09 09:09:51;;;;;;;4.90;3.63;;;;;;;;;;5049813;28;20231;-86
2021/11/09 09:12:19;;;;;;;4.88;3.95;;;;;;;;;;5052528;28;20291;-86
2021/11/09 09:14:47;;;;;;;4.97;4.07;;;;;;;;;;5072171;28;20213;-85
2021/11/09 09:17:15;;;;;;;6.25;4.07;;;;;;;;;;5073084;28;20204;-86
2021/11/09 09:19:46;;;;;;;9.00;4.63;;;;;;;;;;5073610;28;20257;-86
2021/11/09 09:22:15;;;;;;;4.88;3.40;;;;;;;;;;5071916;28;20213;-86
2021/11/09 09:24:48;;;;;;;6.65;3.80;;;;;;;;;;5053482;28;20211;-86
2021/11/09 09:27:25;;;;;;;4.60;3.45;;;6.20;99.50;;;;;;5053089;28;20219;-86
2021/11/09 09:33:01;;;;;;;8.63;3.50;;;;;;;;;;5033033;28;20274;-86
2021/11/09 09:52:29;;;;;;;7.10;4.15;;;;;;;;;;5051355;28;20608;-85
2021/11/09 09:57:42;;;;;;;9.85;4.15;;;;;;;;;;5053012;28;20577;-85
2021/11/09 10:00:09;;;;;;;6.68;4.13;;;;;;;;;;5052389;28;20205;-84
2021/11/09 10:02:48;;;;;;;8.27;4.05;;;6.80;98.10;;;;;;5053147;28;20249;-85
2021/11/09 10:05:15;;;;;;;7.55;4.50;;;;;;;;;;5052179;28;20196;-85
2021/11/09 10:07:44;;;;;;;8.38;4.30;;;6.90;96.60;;;;;;5052466;28;20323;-84
2021/11/09 10:10:17;;;;;;;6.65;3.22;;;7.10;97.50;;;;;;5052077;28;20254;-86
2021/11/09 10:12:45;;;;;;;14.70;5.65;;;7.00;96.70;;;;;;5055654;28;20223;-85
2021/11/09 10:15:15;;;;;;;7.63;4.95;;;7.00;97.00;;;;;;5070948;28;20235;-85
2021/11/09 10:17:46;;;;;;;23.52;4.95;;;7.00;97.80;;;;;;5071893;28;20204;-86
2021/11/09 10:20:15;;;;;;;7.93;4.30;;;7.20;97.40;;;;;;5071903;28;20291;-84
2021/11/09 10:22:44;;;;;;;6.45;4.88;;;7.20;96.80;;;;;;5068292;28;20196;-84
2021/11/09 10:25:14;;;;;;;6.38;4.70;;;7.20;97.10;;;;;;5051917;28;20216;-85
2021/11/09 10:27:44;;;;;;;7.38;5.72;;;7.30;96.60;;;;;;5052234;28;20228;-86
2021/11/09 10:30:13;;;;;;;7.97;4.80;;;7.30;97.10;;;;;;5051191;28;20250;-85
2021/11/09 10:32:40;;;;;;;4.90;4.10;;;;;;;;;;5056621;28;20199;-86
2021/11/09 10:35:11;;;;;;;9.18;5.95;;;7.20;96.80;;;;;;5052159;28;20250;-85
2021/11/09 10:37:39;;;;;;;4.68;4.28;;;7.20;97.00;;;;;;5051802;28;20678;-84
2021/11/09 10:40:12;;;;;;;11.23;4.68;;;7.10;97.30;;;;;;5051471;28;20553;-85
2021/11/09 10:42:40;;;;;;;6.57;5.15;;;7.20;97.30;;;;;;5069145;28;20210;-85
2021/11/09 10:45:10;;;;;;;6.70;5.72;;;7.10;97.00;;;;;;5051666;28;20291;-86
2021/11/09 10:47:40;;;;;;;6.93;5.50;;;7.30;96.90;;;;;;5051740;28;20228;-85
2021/11/09 10:50:15;;;;;;;10.60;4.45;;;7.40;97.00;;;;;;5051159;28;20212;-84
2021/11/09 10:52:42;;;;;;;7.10;4.40;;;;;;;;;;5054001;28;20907;-85
2021/11/09 10:55:15;;;;;;;7.28;4.63;;;7.50;96.20;;;;;;5051080;28;20204;-85
2021/11/09 10:57:51;;;;;;;5.38;4.38;;;;;;;;;;5051683;28;20303;-85
2021/11/09 11:00:58;;;;;;;10.18;4.78;;;7.60;96.10;;;;;;5051203;28;20212;-85
2021/11/09 11:03:31;;;;;;;5.50;3.72;;;7.60;95.10;;;;;;5051725;28;20200;-85
2021/11/09 11:06:16;;;;;;;4.30;3.25;;;;;;;;;;5051841;28;20204;-85
2021/11/09 11:08:44;;;;;;;8.60;4.68;;;7.70;94.50;;;;;;5051608;28;20200;-85
2021/11/09 11:11:25;;;;;;;6.45;4.20;;;7.80;93.50;;;;;;5050552;28;20205;-85
2021/11/09 11:13:54;;;;;;;7.82;4.03;;;7.80;94.90;;;;;;5062286;28;20272;-85
2021/11/09 11:16:25;;;;;;;4.63;4.00;;;7.80;94.50;;;;;;5069861;28;20243;-85
2021/11/09 11:18:54;;;;;;;6.20;3.20;;;7.90;94.80;;;;;;5071285;28;20203;-85
2021/11/09 11:21:26;;;;;;;12.18;4.25;;;7.90;94.40;;;;;;5070333;28;20295;-86
2021/11/09 11:23:53;;;;;;;7.25;4.97;;;;;;;;;;5059355;28;20680;-86
2021/11/09 11:26:21;;;;;;;11.68;5.60;;;;;;;;;;5050374;28;20204;-86
2021/11/09 11:28:50;;;;;;;3.92;3.00;;;8.10;93.90;;;;;;5051127;28;20282;-85
2021/11/09 11:31:19;;;;;;;7.70;3.58;;;8.20;91.70;;;;;;5050348;28;20680;-84
2021/11/09 11:33:46;;;;;;;4.47;3.13;;;8.20;91.80;;;;;;5057076;28;20197;-84
2021/11/09 11:36:13;;;;;;;6.03;3.50;;;;;;;;;;5050655;28;20238;-85
2021/11/09 11:38:45;;;;;;;5.95;3.88;;;8.20;93.70;;;;;;5050810;28;20207;-84
2021/11/09 11:41:13;;;;;;;3.45;3.15;;;;;;;;;;5058620;28;20218;-84
2021/11/09 11:43:57;;;;;;;7.20;3.20;;;8.40;90.10;;;;;;5061329;28;20646;-84
2021/11/09 11:46:46;;;;;;;3.55;2.95;;;8.30;89.80;;;;;;5050717;28;20291;-85
2021/11/09 11:49:16;;;;;;;2.73;2.53;;;8.30;93.30;;;;;;5050083;28;20196;-85
2021/11/09 11:52:05;;;;;;;4.10;3.40;;;8.40;93.00;;;;;;5050239;28;20708;-84
2021/11/09 11:55:01;;;;;;;6.13;3.20;;;8.60;87.50;;;;;;5066440;28;20199;-84
2021/11/09 11:57:41;;;;;;;4.47;2.95;;;9.30;92.30;;;;;;5060646;28;20291;-85
2021/11/09 12:00:43;;;;;;;3.42;2.38;;;8.70;86.60;;;;;;5070417;28;20196;-83
2021/11/09 12:03:33;;;;;;;5.30;2.90;;;8.60;86.80;;;;;;5065762;28;20705;-84
2021/11/09 12:06:02;;;;;;;5.60;3.38;;;8.50;91.90;;;;;;5049747;28;20232;-85
2021/11/09 12:08:40;;;;;;;5.68;3.03;;;8.60;91.90;;;;;;5050392;28;20314;-85
2021/11/09 12:11:10;;;;;;;7.13;3.37;;;8.60;92.10;;;;;;5049947;28;20295;-85
2021/11/09 12:13:56;;;;;;;6.15;3.25;;;8.70;92.00;;;;;;5058315;28;20989;-84
2021/11/09 12:16:42;;;;;;;5.83;3.07;;;8.60;91.50;;;;;;5069054;28;20695;-84
2021/11/09 12:19:10;;;;;;;6.10;3.23;;;;;;;;;;5070114;28;21190;-83
2021/11/09 12:21:39;;;;;;;3.90;3.50;;;8.70;91.40;;;;;;5069867;28;20622;-84
2021/11/09 12:24:19;;;;;;;4.20;3.10;;;9.10;86.50;;;;;;5061431;28;20286;-84
2021/11/09 12:26:50;;;;;;;7.90;3.57;;;8.80;91.20;;;;;;5066381;28;20662;-86
2021/11/09 12:29:50;;;;;;;9.90;3.00;;;8.70;85.70;;;;;;5050222;28;20631;-85
2021/11/09 12:32:39;;;;;;;4.57;2.50;;;8.80;84.30;;;;;;5054083;28;20211;-84
2021/11/09 12:35:22;;;;;;;5.63;3.20;;;8.80;91.00;;;;;;5066450;28;20638;-84
2021/11/09 12:38:19;;;;;;;10.37;3.00;;;8.70;84.90;;;;;;5060006;28;20654;-83
2021/11/09 12:40:53;;;;;;;3.87;2.70;;;8.80;91.00;;;;;;5012347;28;20682;-86
2021/11/09 12:43:43;;;;;;;6.93;3.30;;;8.80;91.40;;;;;;5062074;28;20680;-85
2021/11/09 12:46:13;;;;;;;8.70;3.27;;;8.90;90.90;;;;;;5070447;28;20633;-84
2021/11/09 12:48:49;;;;;;;3.53;3.20;;;8.90;90.30;;;;;;5057099;28;21285;-83
2021/11/09 12:51:17;;;;;;;5.80;2.50;;;8.80;87.80;;;;;;5053481;28;20697;-84
2021/11/09 12:53:47;;;;;;;5.73;3.40;;;8.90;89.60;;;;;;5067707;28;20717;-84
2021/11/09 12:56:17;;;;;;;3.37;2.80;;;8.90;88.90;;;;;;5073968;28;20662;-83
2021/11/09 12:58:54;;;;;;;6.43;2.83;;;8.90;89.70;;;;;;5056647;28;21245;-83
2021/11/09 13:06:58;;;;;;;7.37;3.40;;;9.00;89.10;;;;;;5055072;28;20607;-82
2021/11/09 13:09:31;;;;;;;6.10;3.40;;;9.00;88.80;;;;;;5073770;28;20621;-84
2021/11/09 13:12:01;;;;;;;4.90;3.77;;;9.00;89.60;;;;;;5073064;28;20614;-83
2021/11/09 13:14:35;;;;;;;4.00;3.00;;;;;;;;;;5072717;28;20601;-84
2021/11/09 13:17:11;;;;;;;3.30;2.97;;;8.90;89.90;;;;;;5072733;28;21044;-83
2021/11/09 13:19:41;;;;;;;3.40;3.07;;;;;;;;;;5073758;28;20827;-84
2021/11/09 13:22:10;;;;;;;3.87;2.70;;;9.00;90.30;;;;;;5073117;28;20710;-83
2021/11/09 13:24:45;;;;;;;5.63;3.00;;;9.00;90.30;;;;;;5073418;28;20674;-84
2021/11/09 13:27:13;;;;;;;7.00;3.57;;;9.00;89.10;;;;;;5068528;28;21226;-83
2021/11/09 13:29:50;;;;;;;3.40;3.17;;;9.10;90.30;;;;;;5053245;28;20622;-83
2021/11/09 13:32:18;;;;;;;4.30;3.90;;;8.90;88.00;;;;;;5056779;28;21019;-84
2021/11/09 13:34:55;;;;;;;3.33;3.03;;;9.00;89.30;;;;;;5073069;28;20712;-83
2021/11/09 13:37:22;;;;;;;3.73;3.00;;;;;;;;;;5068133;28;21011;-84
2021/11/09 13:39:58;;;;;;;4.23;3.33;;;;;;;;;;5052987;28;20986;-83
2021/11/09 13:42:26;;;;;;;5.03;3.10;;;;;;;;;;5071086;28;20626;-84
2021/11/09 13:44:54;;;;;;;3.47;3.17;;;;;;;;;;5072887;28;20626;-84
2021/11/09 13:47:30;;;;;;;4.67;3.00;;;8.90;89.30;;;;;;5068329;28;20739;-83
2021/11/09 13:50:09;;;;;;;3.90;3.37;;;8.60;88.40;;;;;;5052638;28;20603;-82
2021/11/09 13:52:42;;;;;;;9.23;3.17;;;;;;;;;;5053160;28;20621;-83
2021/11/09 13:55:09;;;;;;;7.50;3.57;;;;;;;;;;5053181;28;20637;-84
2021/11/09 13:57:36;;;;;;;3.70;3.10;;;;;;;;;;5058930;28;20633;-83
2021/11/09 14:00:25;;;;;;;5.47;3.35;;;8.80;89.40;;;;;;5072597;28;20625;-82
2021/11/09 14:03:06;;;;;;;5.47;3.30;;;;;;;;;;5072025;28;20657;-82
2021/11/09 14:05:49;;;;;;;3.40;3.07;;;;;;;;;;5062980;28;20609;-82
2021/11/09 14:08:43;;;;;;;4.17;2.47;;;;;;;;;;5052916;28;20745;-83
2021/11/09 14:11:27;;;;;;;3.47;3.10;;;;;;;;;;5052047;28;20725;-82
2021/11/09 14:16:51;;;;;;;7.93;3.07;;;;;;;;;;5029193;28;20634;-83
2021/11/09 14:19:28;;;;;;;5.60;3.30;;;8.70;88.90;;;;;;5071548;28;21307;-83
2021/11/09 14:21:57;;;;;;;4.97;3.23;;;8.70;86.80;;;;;;5064773;28;20683;-83
2021/11/09 14:24:25;;;;;;;5.37;3.07;;;8.70;89.70;;;;;;5072627;28;20622;-84
2021/11/09 14:27:04;;;;;;;6.67;2.90;;;8.70;90.10;;;;;;5072474;28;20613;-83
2021/11/09 14:29:33;;;;;;;4.00;3.00;;;;;;;;;;5052359;28;20625;-83
2021/11/09 14:32:05;;;;;;;3.80;3.03;;;8.60;90.10;;;;;;5053646;28;20730;-83
2021/11/09 14:34:33;;;;;;;4.50;2.92;;;;;;;;;;5072666;28;20653;-84
2021/11/09 14:37:19;;;;;;;3.13;2.67;;;8.60;89.80;;;;;;5071619;28;20660;-82
2021/11/09 14:40:04;;;;;;;3.43;3.13;;;8.60;90.20;;;;;;5052015;28;20630;-83
2021/11/09 14:42:41;;;;;;;2.70;2.47;;;8.70;89.20;;;;;;5071397;28;21007;-83
2021/11/09 14:45:16;;;;;;;4.03;3.33;;;8.80;89.50;;;;;;5072257;28;20621;-84
2021/11/09 14:47:49;;;;;;;9.00;3.03;;;8.70;89.10;;;;;;5065762;28;20654;-83
2021/11/09 14:50:26;;;;;;;3.53;3.00;;;8.60;89.40;;;;;;5051639;28;21175;-83
2021/11/09 14:53:04;;;;;;;3.20;2.40;;;;;;;;;;5052054;28;20626;-83
2021/11/09 14:55:41;;;;;;;7.50;2.83;;;8.50;89.90;;;;;;5052077;28;20656;-83
2021/11/09 14:58:24;;;;;;;4.65;3.50;;;;;;;;;;5061463;28;20733;-84
2021/11/09 15:00:52;;;;;;;4.33;3.10;;;;;;;;;;5070199;28;20204;-84
2021/11/09 15:03:21;;;;;;;5.70;2.60;;;;;;;;;;5071278;28;20633;-84
2021/11/09 15:05:50;;;;;;;3.40;2.50;;;;;;;;;;5071209;28;20648;-84
2021/11/09 15:08:26;;;;;;;4.63;2.60;;;;;;;;;;5059839;28;20649;-84
2021/11/09 15:27:42;;;;;;;10.10;4.50;;;;;;;;;;5067805;28;20627;-81
2021/11/09 15:30:13;;;;;;;3.87;2.83;;;;;;;;;;5049649;28;21484;-82
2021/11/09 15:32:40;;;;;;;5.73;3.50;;;;;;;;;;5057579;28;20668;-81
2021/11/09 15:35:18;;;;;;;5.45;3.80;;;;;;;;;;5070388;28;20646;-82
2021/11/09 15:37:49;;;;;;;2.88;2.63;;;;;;;;;;5064774;28;20216;-84
2021/11/09 15:40:20;;;;;;;3.50;2.80;;;;;;;;;;5050855;28;20196;-81
2021/11/09 15:42:48;;;;;;;3.70;2.83;;;;;;;;;;5070282;28;20646;-83
2021/11/09 15:45:15;;;;;;;6.38;3.70;;;;;;;;;;5070776;28;20618;-82
2021/11/09 15:47:43;;;;;;;6.63;3.80;;;;;;;;;;5065010;28;20266;-82
2021/11/09 15:50:12;;;;;;;5.70;2.70;;;7.40;94.70;;;;;;5050101;28;20641;-82
2021/11/09 15:52:40;;;;;;;9.65;3.75;;;;;;;;;;5050516;28;20207;-82
2021/11/09 15:55:08;;;;;;;4.57;3.78;;;;;;;;;;5059371;28;20238;-82
2021/11/09 15:57:36;;;;;;;8.93;3.65;;;;;;;;;;5066610;28;20193;-82
2021/11/09 16:00:07;;;;;;;9.10;4.60;;;6.90;94.90;;;;;;5050404;28;20208;-83
2021/11/09 16:02:36;;;;;;;3.92;3.60;;;;;;;;;;5050430;28;20208;-82
2021/11/09 16:05:05;;;;;;;7.20;3.20;;;;;;;;;;5050322;28;20193;-82
2021/11/09 16:07:34;;;;;;;5.15;3.13;;;;;;;;;;5052516;28;20207;-82